sensor_id;sensor_type;location;lat;lon;timestamp;P1;durP1;ratioP1;P2;durP2;ratioP2
75820;SDS011;64454;51.984;9.838;2023-07-20T00:01:52;4.72;;;3.40;;
75820;SDS011;64454;51.984;9.838;2023-07-20T00:04:20;4.03;;;3.25;;
75820;SDS011;64454;51.984;9.838;2023-07-20T00:06:47;3.83;;;2.97;;
75820;SDS011;64454;51.984;9.838;2023-07-20T00:09:16;4.00;;;3.20;;
75820;SDS011;64454;51.984;9.838;2023-07-20T00:11:48;4.05;;;3.60;;
75820;SDS011;64454;51.984;9.838;2023-07-20T00:14:17;4.72;;;2.95;;
75820;SDS011;64454;51.984;9.838;2023-07-20T00:16:46;3.10;;;2.80;;
75820;SDS011;64454;51.984;9.838;2023-07-20T00:19:20;5.35;;;3.20;;
75820;SDS011;64454;51.984;9.838;2023-07-20T00:21:48;3.80;;;3.40;;
75820;SDS011;64454;51.984;9.838;2023-07-20T00:24:17;3.10;;;2.80;;
75820;SDS011;64454;51.984;9.838;2023-07-20T00:26:45;4.78;;;3.25;;
75820;SDS011;64454;51.984;9.838;2023-07-20T00:29:13;3.90;;;2.83;;
75820;SDS011;64454;51.984;9.838;2023-07-20T00:31:42;3.65;;;3.20;;
75820;SDS011;64454;51.984;9.838;2023-07-20T00:34:09;5.72;;;3.30;;
75820;SDS011;64454;51.984;9.838;2023-07-20T00:36:36;3.88;;;3.38;;
75820;SDS011;64454;51.984;9.838;2023-07-20T00:39:03;4.07;;;3.42;;
75820;SDS011;64454;51.984;9.838;2023-07-20T00:41:31;4.37;;;3.67;;
75820;SDS011;64454;51.984;9.838;2023-07-20T00:43:58;4.45;;;3.80;;
75820;SDS011;64454;51.984;9.838;2023-07-20T00:46:25;5.32;;;3.88;;
75820;SDS011;64454;51.984;9.838;2023-07-20T00:48:52;4.50;;;3.80;;
75820;SDS011;64454;51.984;9.838;2023-07-20T00:51:20;6.17;;;3.83;;
75820;SDS011;64454;51.984;9.838;2023-07-20T00:53:48;4.67;;;3.60;;
75820;SDS011;64454;51.984;9.838;2023-07-20T00:56:16;5.90;;;3.80;;
75820;SDS011;64454;51.984;9.838;2023-07-20T00:58:44;8.60;;;3.70;;
75820;SDS011;64454;51.984;9.838;2023-07-20T01:01:12;5.30;;;4.00;;
75820;SDS011;64454;51.984;9.838;2023-07-20T01:03:39;5.38;;;4.13;;
75820;SDS011;64454;51.984;9.838;2023-07-20T01:06:09;3.88;;;3.38;;
75820;SDS011;64454;51.984;9.838;2023-07-20T01:08:53;4.57;;;3.47;;
75820;SDS011;64454;51.984;9.838;2023-07-20T01:11:33;5.78;;;3.40;;
75820;SDS011;64454;51.984;9.838;2023-07-20T01:14:10;3.90;;;3.50;;
75820;SDS011;64454;51.984;9.838;2023-07-20T01:16:41;5.63;;;3.20;;
75820;SDS011;64454;51.984;9.838;2023-07-20T01:19:08;3.38;;;3.08;;
75820;SDS011;64454;51.984;9.838;2023-07-20T01:21:37;4.20;;;3.50;;
75820;SDS011;64454;51.984;9.838;2023-07-20T01:27:36;4.00;;;3.15;;
75820;SDS011;64454;51.984;9.838;2023-07-20T01:30:49;4.72;;;3.92;;
75820;SDS011;64454;51.984;9.838;2023-07-20T01:33:23;4.45;;;3.55;;
75820;SDS011;64454;51.984;9.838;2023-07-20T01:35:53;4.47;;;3.85;;
75820;SDS011;64454;51.984;9.838;2023-07-20T01:38:23;5.60;;;3.60;;
75820;SDS011;64454;51.984;9.838;2023-07-20T01:40:51;3.70;;;3.40;;
75820;SDS011;64454;51.984;9.838;2023-07-20T01:43:19;4.63;;;3.30;;
75820;SDS011;64454;51.984;9.838;2023-07-20T01:45:46;3.80;;;3.45;;
75820;SDS011;64454;51.984;9.838;2023-07-20T01:48:13;3.40;;;3.00;;
75820;SDS011;64454;51.984;9.838;2023-07-20T01:50:41;3.50;;;3.20;;
75820;SDS011;64454;51.984;9.838;2023-07-20T01:53:09;4.97;;;3.20;;
75820;SDS011;64454;51.984;9.838;2023-07-20T01:55:36;5.20;;;3.70;;
75820;SDS011;64454;51.984;9.838;2023-07-20T01:58:03;6.05;;;3.20;;
75820;SDS011;64454;51.984;9.838;2023-07-20T02:00:31;4.10;;;3.47;;
75820;SDS011;64454;51.984;9.838;2023-07-20T02:02:58;5.25;;;3.60;;
75820;SDS011;64454;51.984;9.838;2023-07-20T02:05:25;4.10;;;3.70;;
75820;SDS011;64454;51.984;9.838;2023-07-20T02:07:53;3.85;;;3.35;;
75820;SDS011;64454;51.984;9.838;2023-07-20T02:10:20;3.90;;;3.50;;
75820;SDS011;64454;51.984;9.838;2023-07-20T02:12:47;4.00;;;3.60;;
75820;SDS011;64454;51.984;9.838;2023-07-20T02:15:14;4.20;;;3.42;;
75820;SDS011;64454;51.984;9.838;2023-07-20T02:17:41;4.32;;;2.92;;
75820;SDS011;64454;51.984;9.838;2023-07-20T02:20:09;4.25;;;3.80;;
75820;SDS011;64454;51.984;9.838;2023-07-20T02:22:37;6.70;;;3.83;;
75820;SDS011;64454;51.984;9.838;2023-07-20T02:25:06;4.13;;;3.72;;
75820;SDS011;64454;51.984;9.838;2023-07-20T02:27:34;4.55;;;3.58;;
75820;SDS011;64454;51.984;9.838;2023-07-20T02:30:02;3.80;;;3.40;;
75820;SDS011;64454;51.984;9.838;2023-07-20T02:32:30;5.07;;;3.70;;
75820;SDS011;64454;51.984;9.838;2023-07-20T02:34:57;4.18;;;3.38;;
75820;SDS011;64454;51.984;9.838;2023-07-20T02:37:24;4.32;;;3.47;;
75820;SDS011;64454;51.984;9.838;2023-07-20T02:39:51;5.07;;;3.50;;
75820;SDS011;64454;51.984;9.838;2023-07-20T02:42:19;4.95;;;3.40;;
75820;SDS011;64454;51.984;9.838;2023-07-20T02:44:47;4.32;;;3.90;;
75820;SDS011;64454;51.984;9.838;2023-07-20T02:47:14;4.60;;;3.60;;
75820;SDS011;64454;51.984;9.838;2023-07-20T02:49:41;4.65;;;3.35;;
75820;SDS011;64454;51.984;9.838;2023-07-20T02:52:08;3.70;;;3.25;;
75820;SDS011;64454;51.984;9.838;2023-07-20T02:54:35;4.72;;;3.90;;
75820;SDS011;64454;51.984;9.838;2023-07-20T02:57:02;4.18;;;3.78;;
75820;SDS011;64454;51.984;9.838;2023-07-20T02:59:31;6.03;;;3.70;;
75820;SDS011;64454;51.984;9.838;2023-07-20T03:01:58;4.18;;;3.75;;
75820;SDS011;64454;51.984;9.838;2023-07-20T03:04:25;6.25;;;4.30;;
75820;SDS011;64454;51.984;9.838;2023-07-20T03:06:52;4.67;;;3.90;;
75820;SDS011;64454;51.984;9.838;2023-07-20T03:09:20;4.35;;;3.70;;
75820;SDS011;64454;51.984;9.838;2023-07-20T03:11:47;5.55;;;4.00;;
75820;SDS011;64454;51.984;9.838;2023-07-20T03:14:16;5.57;;;4.40;;
75820;SDS011;64454;51.984;9.838;2023-07-20T03:16:46;3.60;;;3.30;;
75820;SDS011;64454;51.984;9.838;2023-07-20T03:19:14;4.00;;;3.60;;
75820;SDS011;64454;51.984;9.838;2023-07-20T03:21:43;4.90;;;3.50;;
75820;SDS011;64454;51.984;9.838;2023-07-20T03:24:10;4.93;;;3.97;;
75820;SDS011;64454;51.984;9.838;2023-07-20T03:26:37;5.80;;;3.50;;
75820;SDS011;64454;51.984;9.838;2023-07-20T03:29:04;5.07;;;4.03;;
75820;SDS011;64454;51.984;9.838;2023-07-20T03:31:31;4.60;;;3.70;;
75820;SDS011;64454;51.984;9.838;2023-07-20T03:34:00;5.90;;;3.50;;
75820;SDS011;64454;51.984;9.838;2023-07-20T03:36:27;3.93;;;3.40;;
75820;SDS011;64454;51.984;9.838;2023-07-20T03:38:54;4.40;;;3.90;;
75820;SDS011;64454;51.984;9.838;2023-07-20T03:41:21;6.80;;;4.60;;
75820;SDS011;64454;51.984;9.838;2023-07-20T03:43:47;4.18;;;3.53;;
75820;SDS011;64454;51.984;9.838;2023-07-20T03:46:15;5.10;;;3.90;;
75820;SDS011;64454;51.984;9.838;2023-07-20T03:48:42;4.32;;;3.70;;
75820;SDS011;64454;51.984;9.838;2023-07-20T03:51:10;4.20;;;3.58;;
75820;SDS011;64454;51.984;9.838;2023-07-20T03:53:37;3.95;;;3.50;;
75820;SDS011;64454;51.984;9.838;2023-07-20T03:56:04;6.53;;;3.90;;
75820;SDS011;64454;51.984;9.838;2023-07-20T03:58:31;4.60;;;3.50;;
75820;SDS011;64454;51.984;9.838;2023-07-20T04:00:58;5.90;;;4.68;;
75820;SDS011;64454;51.984;9.838;2023-07-20T04:03:26;6.03;;;4.32;;
75820;SDS011;64454;51.984;9.838;2023-07-20T04:05:54;4.18;;;3.78;;
75820;SDS011;64454;51.984;9.838;2023-07-20T04:08:22;5.85;;;3.80;;
75820;SDS011;64454;51.984;9.838;2023-07-20T04:10:50;4.17;;;3.70;;
75820;SDS011;64454;51.984;9.838;2023-07-20T04:13:17;5.63;;;3.63;;
75820;SDS011;64454;51.984;9.838;2023-07-20T04:15:44;4.73;;;3.90;;
75820;SDS011;64454;51.984;9.838;2023-07-20T04:18:11;4.75;;;3.95;;
75820;SDS011;64454;51.984;9.838;2023-07-20T04:20:38;4.65;;;3.55;;
75820;SDS011;64454;51.984;9.838;2023-07-20T04:23:05;4.35;;;3.60;;
75820;SDS011;64454;51.984;9.838;2023-07-20T04:25:33;3.60;;;3.27;;
75820;SDS011;64454;51.984;9.838;2023-07-20T04:28:04;4.18;;;3.70;;
75820;SDS011;64454;51.984;9.838;2023-07-20T04:30:33;3.83;;;3.40;;
75820;SDS011;64454;51.984;9.838;2023-07-20T04:33:01;4.45;;;3.63;;
75820;SDS011;64454;51.984;9.838;2023-07-20T04:35:45;5.38;;;4.20;;
75820;SDS011;64454;51.984;9.838;2023-07-20T04:38:16;5.18;;;4.30;;
75820;SDS011;64454;51.984;9.838;2023-07-20T04:40:46;4.85;;;4.05;;
75820;SDS011;64454;51.984;9.838;2023-07-20T04:43:15;3.90;;;3.50;;
75820;SDS011;64454;51.984;9.838;2023-07-20T04:45:43;5.30;;;4.00;;
75820;SDS011;64454;51.984;9.838;2023-07-20T04:48:11;4.18;;;3.35;;
75820;SDS011;64454;51.984;9.838;2023-07-20T04:50:40;6.53;;;4.65;;
75820;SDS011;64454;51.984;9.838;2023-07-20T04:53:09;8.52;;;5.78;;
75820;SDS011;64454;51.984;9.838;2023-07-20T04:55:37;8.70;;;5.68;;
75820;SDS011;64454;51.984;9.838;2023-07-20T04:58:06;8.47;;;4.80;;
75820;SDS011;64454;51.984;9.838;2023-07-20T05:00:33;6.28;;;5.20;;
75820;SDS011;64454;51.984;9.838;2023-07-20T05:03:01;6.70;;;5.00;;
75820;SDS011;64454;51.984;9.838;2023-07-20T05:05:30;5.35;;;4.85;;
75820;SDS011;64454;51.984;9.838;2023-07-20T05:07:57;5.57;;;5.07;;
75820;SDS011;64454;51.984;9.838;2023-07-20T05:10:24;5.63;;;5.00;;
75820;SDS011;64454;51.984;9.838;2023-07-20T05:12:51;7.10;;;5.22;;
75820;SDS011;64454;51.984;9.838;2023-07-20T05:15:19;6.28;;;5.22;;
75820;SDS011;64454;51.984;9.838;2023-07-20T05:17:46;8.03;;;6.00;;
75820;SDS011;64454;51.984;9.838;2023-07-20T05:20:13;6.65;;;4.50;;
75820;SDS011;64454;51.984;9.838;2023-07-20T05:22:41;5.23;;;3.50;;
75820;SDS011;64454;51.984;9.838;2023-07-20T05:25:08;4.80;;;3.30;;
75820;SDS011;64454;51.984;9.838;2023-07-20T05:27:37;4.05;;;3.03;;
75820;SDS011;64454;51.984;9.838;2023-07-20T05:30:05;2.72;;;2.53;;
75820;SDS011;64454;51.984;9.838;2023-07-20T05:32:35;2.77;;;2.57;;
75820;SDS011;64454;51.984;9.838;2023-07-20T05:35:02;3.10;;;2.80;;
75820;SDS011;64454;51.984;9.838;2023-07-20T05:37:29;4.40;;;2.92;;
75820;SDS011;64454;51.984;9.838;2023-07-20T05:39:57;3.10;;;2.60;;
75820;SDS011;64454;51.984;9.838;2023-07-20T05:42:24;3.05;;;2.40;;
75820;SDS011;64454;51.984;9.838;2023-07-20T05:44:51;3.38;;;2.80;;
75820;SDS011;64454;51.984;9.838;2023-07-20T05:47:19;3.90;;;3.15;;
75820;SDS011;64454;51.984;9.838;2023-07-20T05:49:47;5.00;;;3.70;;
75820;SDS011;64454;51.984;9.838;2023-07-20T05:52:14;5.53;;;3.90;;
75820;SDS011;64454;51.984;9.838;2023-07-20T05:54:41;4.60;;;4.20;;
75820;SDS011;64454;51.984;9.838;2023-07-20T05:57:08;6.78;;;4.20;;
75820;SDS011;64454;51.984;9.838;2023-07-20T05:59:35;4.50;;;4.10;;
75820;SDS011;64454;51.984;9.838;2023-07-20T06:02:03;6.72;;;4.40;;
75820;SDS011;64454;51.984;9.838;2023-07-20T06:04:31;4.90;;;3.20;;
75820;SDS011;64454;51.984;9.838;2023-07-20T06:06:59;3.50;;;2.90;;
75820;SDS011;64454;51.984;9.838;2023-07-20T06:09:26;5.15;;;3.40;;
75820;SDS011;64454;51.984;9.838;2023-07-20T06:11:53;3.50;;;2.80;;
75820;SDS011;64454;51.984;9.838;2023-07-20T06:14:20;2.95;;;2.70;;
75820;SDS011;64454;51.984;9.838;2023-07-20T06:16:47;4.90;;;3.20;;
75820;SDS011;64454;51.984;9.838;2023-07-20T06:19:14;5.88;;;3.65;;
75820;SDS011;64454;51.984;9.838;2023-07-20T06:21:44;3.03;;;2.50;;
75820;SDS011;64454;51.984;9.838;2023-07-20T06:24:12;3.28;;;2.97;;
75820;SDS011;64454;51.984;9.838;2023-07-20T06:26:40;4.22;;;3.72;;
75820;SDS011;64454;51.984;9.838;2023-07-20T06:29:07;4.07;;;2.90;;
75820;SDS011;64454;51.984;9.838;2023-07-20T06:31:35;2.80;;;1.90;;
75820;SDS011;64454;51.984;9.838;2023-07-20T06:34:03;2.70;;;2.20;;
75820;SDS011;64454;51.984;9.838;2023-07-20T06:36:30;3.05;;;1.75;;
75820;SDS011;64454;51.984;9.838;2023-07-20T06:38:57;1.80;;;1.50;;
75820;SDS011;64454;51.984;9.838;2023-07-20T06:41:25;2.60;;;1.60;;
75820;SDS011;64454;51.984;9.838;2023-07-20T06:43:52;5.77;;;2.20;;
75820;SDS011;64454;51.984;9.838;2023-07-20T06:46:23;3.40;;;2.40;;
75820;SDS011;64454;51.984;9.838;2023-07-20T06:48:51;2.47;;;2.20;;
75820;SDS011;64454;51.984;9.838;2023-07-20T06:51:18;3.10;;;2.58;;
75820;SDS011;64454;51.984;9.838;2023-07-20T06:53:45;2.67;;;2.20;;
75820;SDS011;64454;51.984;9.838;2023-07-20T06:56:12;2.80;;;2.60;;
75820;SDS011;64454;51.984;9.838;2023-07-20T06:58:41;3.17;;;2.67;;
75820;SDS011;64454;51.984;9.838;2023-07-20T07:01:08;3.00;;;2.70;;
75820;SDS011;64454;51.984;9.838;2023-07-20T07:03:35;2.60;;;2.40;;
75820;SDS011;64454;51.984;9.838;2023-07-20T07:06:02;4.15;;;2.35;;
75820;SDS011;64454;51.984;9.838;2023-07-20T07:08:29;3.17;;;2.88;;
75820;SDS011;64454;51.984;9.838;2023-07-20T07:10:56;4.07;;;2.50;;
75820;SDS011;64454;51.984;9.838;2023-07-20T07:13:23;2.50;;;2.30;;
75820;SDS011;64454;51.984;9.838;2023-07-20T07:15:52;3.95;;;2.95;;
75820;SDS011;64454;51.984;9.838;2023-07-20T07:18:19;2.53;;;2.30;;
75820;SDS011;64454;51.984;9.838;2023-07-20T07:20:52;2.25;;;2.05;;
75820;SDS011;64454;51.984;9.838;2023-07-20T07:23:20;2.10;;;1.85;;
75820;SDS011;64454;51.984;9.838;2023-07-20T07:25:47;2.00;;;1.80;;
75820;SDS011;64454;51.984;9.838;2023-07-20T07:28:14;2.50;;;2.00;;
75820;SDS011;64454;51.984;9.838;2023-07-20T07:30:41;2.20;;;2.00;;
75820;SDS011;64454;51.984;9.838;2023-07-20T07:33:10;2.88;;;2.30;;
75820;SDS011;64454;51.984;9.838;2023-07-20T07:35:37;2.72;;;2.30;;
75820;SDS011;64454;51.984;9.838;2023-07-20T07:38:05;2.63;;;1.80;;
75820;SDS011;64454;51.984;9.838;2023-07-20T07:40:32;2.35;;;2.10;;
75820;SDS011;64454;51.984;9.838;2023-07-20T07:42:59;2.00;;;1.80;;
75820;SDS011;64454;51.984;9.838;2023-07-20T07:45:26;2.50;;;1.98;;
75820;SDS011;64454;51.984;9.838;2023-07-20T07:47:53;3.00;;;1.90;;
75820;SDS011;64454;51.984;9.838;2023-07-20T07:50:21;1.52;;;1.40;;
75820;SDS011;64454;51.984;9.838;2023-07-20T07:52:48;3.50;;;1.55;;
75820;SDS011;64454;51.984;9.838;2023-07-20T07:55:15;2.80;;;1.80;;
75820;SDS011;64454;51.984;9.838;2023-07-20T07:57:43;2.50;;;2.03;;
75820;SDS011;64454;51.984;9.838;2023-07-20T08:00:10;2.70;;;2.50;;
75820;SDS011;64454;51.984;9.838;2023-07-20T08:02:40;2.72;;;2.10;;
75820;SDS011;64454;51.984;9.838;2023-07-20T08:05:08;2.83;;;2.15;;
75820;SDS011;64454;51.984;9.838;2023-07-20T08:07:37;2.92;;;2.10;;
75820;SDS011;64454;51.984;9.838;2023-07-20T08:10:04;3.33;;;2.00;;
75820;SDS011;64454;51.984;9.838;2023-07-20T08:12:33;1.83;;;1.65;;
75820;SDS011;64454;51.984;9.838;2023-07-20T08:15:00;1.10;;;1.00;;
75820;SDS011;64454;51.984;9.838;2023-07-20T08:17:27;1.90;;;1.20;;
75820;SDS011;64454;51.984;9.838;2023-07-20T08:19:55;1.70;;;1.10;;
75820;SDS011;64454;51.984;9.838;2023-07-20T08:22:22;1.90;;;1.30;;
75820;SDS011;64454;51.984;9.838;2023-07-20T08:24:50;1.85;;;1.65;;
75820;SDS011;64454;51.984;9.838;2023-07-20T08:27:17;1.73;;;1.20;;
75820;SDS011;64454;51.984;9.838;2023-07-20T08:29:44;1.43;;;1.33;;
75820;SDS011;64454;51.984;9.838;2023-07-20T08:32:11;2.20;;;1.50;;
75820;SDS011;64454;51.984;9.838;2023-07-20T08:34:39;1.98;;;1.50;;
75820;SDS011;64454;51.984;9.838;2023-07-20T08:37:08;1.90;;;1.55;;
75820;SDS011;64454;51.984;9.838;2023-07-20T08:39:35;1.73;;;1.40;;
75820;SDS011;64454;51.984;9.838;2023-07-20T08:42:03;2.00;;;1.40;;
75820;SDS011;64454;51.984;9.838;2023-07-20T08:44:34;2.13;;;1.35;;
75820;SDS011;64454;51.984;9.838;2023-07-20T08:47:02;2.10;;;1.20;;
75820;SDS011;64454;51.984;9.838;2023-07-20T08:49:32;2.00;;;1.20;;
75820;SDS011;64454;51.984;9.838;2023-07-20T08:52:00;2.08;;;1.23;;
75820;SDS011;64454;51.984;9.838;2023-07-20T08:54:29;1.15;;;0.80;;
75820;SDS011;64454;51.984;9.838;2023-07-20T08:56:59;1.30;;;1.10;;
75820;SDS011;64454;51.984;9.838;2023-07-20T08:59:31;2.10;;;1.10;;
75820;SDS011;64454;51.984;9.838;2023-07-20T09:02:02;1.50;;;1.10;;
75820;SDS011;64454;51.984;9.838;2023-07-20T09:04:33;1.40;;;1.10;;
75820;SDS011;64454;51.984;9.838;2023-07-20T09:07:01;2.10;;;1.10;;
75820;SDS011;64454;51.984;9.838;2023-07-20T09:09:28;1.50;;;1.00;;
75820;SDS011;64454;51.984;9.838;2023-07-20T09:11:55;1.80;;;1.15;;
75820;SDS011;64454;51.984;9.838;2023-07-20T09:14:24;1.40;;;0.90;;
75820;SDS011;64454;51.984;9.838;2023-07-20T09:16:52;1.85;;;1.02;;
75820;SDS011;64454;51.984;9.838;2023-07-20T09:19:20;1.40;;;0.90;;
75820;SDS011;64454;51.984;9.838;2023-07-20T09:21:48;1.40;;;1.10;;
75820;SDS011;64454;51.984;9.838;2023-07-20T09:24:18;2.05;;;1.10;;
75820;SDS011;64454;51.984;9.838;2023-07-20T09:26:48;1.20;;;1.00;;
75820;SDS011;64454;51.984;9.838;2023-07-20T09:29:18;2.10;;;1.00;;
75820;SDS011;64454;51.984;9.838;2023-07-20T09:31:59;1.30;;;0.90;;
75820;SDS011;64454;51.984;9.838;2023-07-20T09:34:28;1.90;;;1.10;;
75820;SDS011;64454;51.984;9.838;2023-07-20T09:36:56;1.60;;;1.20;;
75820;SDS011;64454;51.984;9.838;2023-07-20T09:39:24;1.38;;;1.10;;
75820;SDS011;64454;51.984;9.838;2023-07-20T09:41:51;1.50;;;1.00;;
75820;SDS011;64454;51.984;9.838;2023-07-20T09:44:19;1.10;;;1.00;;
75820;SDS011;64454;51.984;9.838;2023-07-20T09:46:47;2.20;;;1.20;;
75820;SDS011;64454;51.984;9.838;2023-07-20T09:49:18;1.70;;;1.10;;
75820;SDS011;64454;51.984;9.838;2023-07-20T09:51:46;1.50;;;1.00;;
75820;SDS011;64454;51.984;9.838;2023-07-20T09:54:15;1.20;;;1.00;;
75820;SDS011;64454;51.984;9.838;2023-07-20T09:56:47;3.10;;;1.40;;
75820;SDS011;64454;51.984;9.838;2023-07-20T09:59:17;1.80;;;1.00;;
75820;SDS011;64454;51.984;9.838;2023-07-20T10:01:46;1.55;;;1.00;;
75820;SDS011;64454;51.984;9.838;2023-07-20T10:04:19;1.30;;;0.82;;
75820;SDS011;64454;51.984;9.838;2023-07-20T10:06:49;1.17;;;0.80;;
75820;SDS011;64454;51.984;9.838;2023-07-20T10:09:21;2.20;;;1.10;;
75820;SDS011;64454;51.984;9.838;2023-07-20T10:11:50;1.80;;;1.10;;
75820;SDS011;64454;51.984;9.838;2023-07-20T10:14:20;2.65;;;1.10;;
75820;SDS011;64454;51.984;9.838;2023-07-20T10:16:49;2.50;;;1.30;;
75820;SDS011;64454;51.984;9.838;2023-07-20T10:19:22;1.30;;;0.90;;
75820;SDS011;64454;51.984;9.838;2023-07-20T10:21:56;1.40;;;0.80;;
75820;SDS011;64454;51.984;9.838;2023-07-20T10:24:33;1.20;;;0.80;;
75820;SDS011;64454;51.984;9.838;2023-07-20T10:27:02;1.70;;;0.90;;
75820;SDS011;64454;51.984;9.838;2023-07-20T10:29:30;2.38;;;0.80;;
75820;SDS011;64454;51.984;9.838;2023-07-20T10:31:59;1.30;;;0.60;;
75820;SDS011;64454;51.984;9.838;2023-07-20T10:34:28;1.30;;;0.80;;
75820;SDS011;64454;51.984;9.838;2023-07-20T10:36:55;1.35;;;0.80;;
75820;SDS011;64454;51.984;9.838;2023-07-20T10:39:23;1.40;;;0.80;;
75820;SDS011;64454;51.984;9.838;2023-07-20T10:41:59;1.20;;;0.70;;
75820;SDS011;64454;51.984;9.838;2023-07-20T10:44:28;1.40;;;0.70;;
75820;SDS011;64454;51.984;9.838;2023-07-20T10:46:59;1.52;;;1.05;;
75820;SDS011;64454;51.984;9.838;2023-07-20T10:49:32;2.20;;;0.70;;
75820;SDS011;64454;51.984;9.838;2023-07-20T10:52:00;1.20;;;0.80;;
75820;SDS011;64454;51.984;9.838;2023-07-20T10:54:47;2.80;;;1.30;;
75820;SDS011;64454;51.984;9.838;2023-07-20T10:57:29;1.27;;;0.80;;
75820;SDS011;64454;51.984;9.838;2023-07-20T11:00:07;1.20;;;0.60;;
75820;SDS011;64454;51.984;9.838;2023-07-20T11:02:44;2.50;;;0.80;;
75820;SDS011;64454;51.984;9.838;2023-07-20T11:08:14;2.20;;;0.90;;
75820;SDS011;64454;51.984;9.838;2023-07-20T11:11:23;1.65;;;0.80;;
75820;SDS011;64454;51.984;9.838;2023-07-20T11:13:55;2.80;;;0.93;;
75820;SDS011;64454;51.984;9.838;2023-07-20T11:16:34;1.08;;;0.75;;
75820;SDS011;64454;51.984;9.838;2023-07-20T11:19:05;1.60;;;1.13;;
75820;SDS011;64454;51.984;9.838;2023-07-20T11:21:43;2.20;;;0.80;;
75820;SDS011;64454;51.984;9.838;2023-07-20T11:24:14;2.40;;;0.88;;
75820;SDS011;64454;51.984;9.838;2023-07-20T11:26:44;1.17;;;0.90;;
75820;SDS011;64454;51.984;9.838;2023-07-20T11:29:15;4.67;;;1.00;;
75820;SDS011;64454;51.984;9.838;2023-07-20T11:31:45;1.83;;;1.00;;
75820;SDS011;64454;51.984;9.838;2023-07-20T11:34:14;2.50;;;1.20;;
75820;SDS011;64454;51.984;9.838;2023-07-20T11:36:47;1.50;;;1.10;;
75820;SDS011;64454;51.984;9.838;2023-07-20T11:39:18;2.13;;;1.10;;
75820;SDS011;64454;51.984;9.838;2023-07-20T11:41:50;1.30;;;0.98;;
75820;SDS011;64454;51.984;9.838;2023-07-20T11:44:20;2.30;;;0.90;;
75820;SDS011;64454;51.984;9.838;2023-07-20T11:46:53;2.50;;;0.93;;
75820;SDS011;64454;51.984;9.838;2023-07-20T11:49:27;2.00;;;0.63;;
75820;SDS011;64454;51.984;9.838;2023-07-20T11:51:54;1.48;;;0.73;;
75820;SDS011;64454;51.984;9.838;2023-07-20T11:54:24;2.47;;;0.60;;
75820;SDS011;64454;51.984;9.838;2023-07-20T11:56:53;1.30;;;0.60;;
75820;SDS011;64454;51.984;9.838;2023-07-20T11:59:21;1.50;;;0.90;;
75820;SDS011;64454;51.984;9.838;2023-07-20T12:01:48;1.35;;;0.80;;
75820;SDS011;64454;51.984;9.838;2023-07-20T12:04:16;1.63;;;0.77;;
75820;SDS011;64454;51.984;9.838;2023-07-20T12:06:45;1.00;;;0.60;;
75820;SDS011;64454;51.984;9.838;2023-07-20T12:09:13;1.25;;;0.60;;
75820;SDS011;64454;51.984;9.838;2023-07-20T12:11:48;1.20;;;0.60;;
75820;SDS011;64454;51.984;9.838;2023-07-20T12:14:17;1.00;;;0.50;;
75820;SDS011;64454;51.984;9.838;2023-07-20T12:16:51;1.67;;;0.70;;
75820;SDS011;64454;51.984;9.838;2023-07-20T12:19:20;2.45;;;0.80;;
75820;SDS011;64454;51.984;9.838;2023-07-20T12:21:46;1.13;;;0.63;;
75820;SDS011;64454;51.984;9.838;2023-07-20T12:24:14;2.28;;;0.60;;
75820;SDS011;64454;51.984;9.838;2023-07-20T12:26:46;1.90;;;0.60;;
75820;SDS011;64454;51.984;9.838;2023-07-20T12:29:14;1.63;;;0.70;;
75820;SDS011;64454;51.984;9.838;2023-07-20T12:31:42;1.80;;;0.80;;
75820;SDS011;64454;51.984;9.838;2023-07-20T12:34:09;1.40;;;0.60;;
75820;SDS011;64454;51.984;9.838;2023-07-20T12:36:36;1.30;;;0.60;;
75820;SDS011;64454;51.984;9.838;2023-07-20T12:39:03;1.90;;;0.70;;
75820;SDS011;64454;51.984;9.838;2023-07-20T12:41:30;1.95;;;0.63;;
75820;SDS011;64454;51.984;9.838;2023-07-20T12:43:59;1.10;;;0.50;;
75820;SDS011;64454;51.984;9.838;2023-07-20T12:46:25;1.60;;;0.70;;
75820;SDS011;64454;51.984;9.838;2023-07-20T12:48:54;1.20;;;0.50;;
75820;SDS011;64454;51.984;9.838;2023-07-20T12:51:21;1.40;;;0.50;;
75820;SDS011;64454;51.984;9.838;2023-07-20T12:53:48;1.10;;;0.50;;
75820;SDS011;64454;51.984;9.838;2023-07-20T12:56:15;1.10;;;0.50;;
75820;SDS011;64454;51.984;9.838;2023-07-20T12:58:42;1.20;;;0.60;;
75820;SDS011;64454;51.984;9.838;2023-07-20T13:01:10;1.38;;;0.60;;
75820;SDS011;64454;51.984;9.838;2023-07-20T13:03:37;1.40;;;0.70;;
75820;SDS011;64454;51.984;9.838;2023-07-20T13:06:04;1.30;;;0.70;;
75820;SDS011;64454;51.984;9.838;2023-07-20T13:08:31;2.25;;;0.75;;
75820;SDS011;64454;51.984;9.838;2023-07-20T13:10:58;0.98;;;0.57;;
75820;SDS011;64454;51.984;9.838;2023-07-20T13:13:25;2.00;;;0.57;;
75820;SDS011;64454;51.984;9.838;2023-07-20T13:15:52;0.93;;;0.60;;
75820;SDS011;64454;51.984;9.838;2023-07-20T13:18:22;2.13;;;0.90;;
75820;SDS011;64454;51.984;9.838;2023-07-20T13:20:51;1.10;;;0.60;;
75820;SDS011;64454;51.984;9.838;2023-07-20T13:23:18;0.93;;;0.52;;
75820;SDS011;64454;51.984;9.838;2023-07-20T13:25:45;1.30;;;0.57;;
75820;SDS011;64454;51.984;9.838;2023-07-20T13:28:12;1.40;;;0.75;;
75820;SDS011;64454;51.984;9.838;2023-07-20T13:30:39;1.17;;;0.57;;
75820;SDS011;64454;51.984;9.838;2023-07-20T13:33:06;1.30;;;0.60;;
75820;SDS011;64454;51.984;9.838;2023-07-20T13:35:34;1.23;;;0.60;;
75820;SDS011;64454;51.984;9.838;2023-07-20T13:38:01;1.60;;;0.60;;
75820;SDS011;64454;51.984;9.838;2023-07-20T13:40:28;2.10;;;0.70;;
75820;SDS011;64454;51.984;9.838;2023-07-20T13:42:55;1.98;;;0.70;;
75820;SDS011;64454;51.984;9.838;2023-07-20T13:45:22;2.10;;;0.60;;
75820;SDS011;64454;51.984;9.838;2023-07-20T13:47:48;1.95;;;0.80;;
75820;SDS011;64454;51.984;9.838;2023-07-20T13:50:15;1.60;;;0.52;;
75820;SDS011;64454;51.984;9.838;2023-07-20T13:52:44;1.20;;;0.70;;
75820;SDS011;64454;51.984;9.838;2023-07-20T13:55:11;1.35;;;0.60;;
75820;SDS011;64454;51.984;9.838;2023-07-20T13:57:37;1.60;;;0.60;;
75820;SDS011;64454;51.984;9.838;2023-07-20T14:00:05;2.40;;;0.70;;
75820;SDS011;64454;51.984;9.838;2023-07-20T14:02:36;2.20;;;0.80;;
75820;SDS011;64454;51.984;9.838;2023-07-20T14:05:03;1.60;;;0.80;;
75820;SDS011;64454;51.984;9.838;2023-07-20T14:07:30;1.10;;;0.70;;
75820;SDS011;64454;51.984;9.838;2023-07-20T14:09:59;1.30;;;0.70;;
75820;SDS011;64454;51.984;9.838;2023-07-20T14:12:26;1.40;;;0.60;;
75820;SDS011;64454;51.984;9.838;2023-07-20T14:14:52;1.52;;;0.70;;
75820;SDS011;64454;51.984;9.838;2023-07-20T14:17:20;1.20;;;0.85;;
75820;SDS011;64454;51.984;9.838;2023-07-20T14:19:47;1.30;;;0.80;;
75820;SDS011;64454;51.984;9.838;2023-07-20T14:22:14;1.40;;;0.50;;
75820;SDS011;64454;51.984;9.838;2023-07-20T14:24:41;1.90;;;0.65;;
75820;SDS011;64454;51.984;9.838;2023-07-20T14:27:09;1.00;;;0.63;;
75820;SDS011;64454;51.984;9.838;2023-07-20T14:29:36;1.50;;;0.77;;
75820;SDS011;64454;51.984;9.838;2023-07-20T14:32:03;1.08;;;0.70;;
75820;SDS011;64454;51.984;9.838;2023-07-20T14:34:32;1.40;;;0.60;;
75820;SDS011;64454;51.984;9.838;2023-07-20T14:36:59;2.30;;;0.70;;
75820;SDS011;64454;51.984;9.838;2023-07-20T14:39:26;1.40;;;0.60;;
75820;SDS011;64454;51.984;9.838;2023-07-20T14:41:53;1.70;;;0.60;;
75820;SDS011;64454;51.984;9.838;2023-07-20T14:44:22;0.90;;;0.60;;
75820;SDS011;64454;51.984;9.838;2023-07-20T14:46:48;1.17;;;0.70;;
75820;SDS011;64454;51.984;9.838;2023-07-20T14:49:16;1.55;;;0.70;;
75820;SDS011;64454;51.984;9.838;2023-07-20T14:51:45;1.20;;;0.60;;
75820;SDS011;64454;51.984;9.838;2023-07-20T14:54:13;1.45;;;0.93;;
75820;SDS011;64454;51.984;9.838;2023-07-20T14:56:48;1.60;;;0.80;;
75820;SDS011;64454;51.984;9.838;2023-07-20T14:59:18;2.05;;;0.70;;
75820;SDS011;64454;51.984;9.838;2023-07-20T15:01:47;2.10;;;0.60;;
75820;SDS011;64454;51.984;9.838;2023-07-20T15:04:14;1.20;;;0.80;;